• Join FlightAware (Why Join?)
  • Login
  • US Flag 
02:06AM EDT


 

Airport Tracker/Info


-or-


 

Live Flight TrackerFlight Track Log ✈ RPA3196 ✈ 05-May-2013 ✈ KPHL - KBTV

Flight Track Log - Related Links

Times and Time Zones

All times are in EDT time to prevent confusion due to time zone crossing. See the RPA3196 flight status page for this flight to view local times or setup timezone preferences in your user account.

Time Position Orientation Groundspeed Altitude Reporting Facility
EDT Latitude Longitude Course Direction KTS MPH feet Rate Location/Type
09:49AM 39.8833 -75.2167 37° Northeast 128 147 1,000  Level Philadelphia TRACON
09:50AM 39.8667 -75.2000 142° Southeast 147 169 2,000 2,220 Climbing Philadelphia TRACON
09:52AM 39.7972 -74.7692 105° East  Level FlightAware Approximate
09:52AM 39.8444 -75.0400 100° East 214 246 7,500  Level New York Center
09:53AM 39.8134 -74.6699 37° Northeast  Level FlightAware Approximate
09:53AM 39.8256 -74.9308 103° East 259 298 10,900  Level New York Center
09:54AM 39.8871 -74.5963 37° Northeast  Level FlightAware Approximate
09:54AM 39.8119 -74.8381 101° East 277 319 12,200  Level New York Center
09:55AM 39.8036 -74.7186 95° East 289 333 15,500 2,760 Climbing New York Center
09:56AM 39.8667 -74.6439 42° Northeast 267 307 17,800 2,340 Climbing New York Center
09:57AM 39.9417 -74.5747 35° Northeast 286 329 20,300 2,340 Climbing New York Center
09:58AM 40.0169 -74.5058 35° Northeast 311 358 22,600 2,160 Climbing New York Center
09:59AM 40.0817 -74.4333 41° Northeast 328 377 24,700 1,200 Climbing New York Center
10:00AM 40.1667 -74.3833 24° Northeast 333 383 25,000 120 Climbing New York Center
10:01AM 40.2594 -74.3503 15° North 333 383 25,000  Level New York Center
10:02AM 40.3500 -74.3194 15° North 338 389 25,000  Level New York Center
10:03AM 40.4447 -74.2836 16° North 338 389 25,000  Level New York Center
10:05AM 40.6525 -74.2100 15° North 338 389 25,000  Level Boston Center
10:06AM 40.7511 -74.1797 13° North 344 396 25,000  Level Boston Center
10:07AM 40.8433 -74.1467 15° North 344 396 25,000  Level Boston Center
10:08AM 40.9353 -74.1161 14° North 339 390 25,000  Level Boston Center
10:09AM 41.0317 -74.0883 12° North 339 390 25,000  Level Boston Center
10:10AM 41.1258 -74.0631 11° North 339 390 25,000  Level Boston Center
10:11AM 41.2094 -74.0403 12° North 339 390 25,000  Level Boston Center
10:12AM 41.3036 -74.0178 10° North 334 384 25,000  Level Boston Center
10:13AM 41.3978 -73.9953 10° North 334 384 25,000  Level Boston Center
10:14AM 41.4919 -73.9669 13° North 334 384 25,000  Level Boston Center
10:15AM 41.5858 -73.9444 10° North 334 384 25,000  Level Boston Center
10:16AM 41.6781 -73.9189 12° North 334 384 25,000  Level Boston Center
10:17AM 41.7700 -73.8931 12° North 334 384 25,000  Level Boston Center
10:18AM 41.8600 -73.8728 10° North 327 376 25,000  Level Boston Center
10:19AM 41.9519 -73.8497 11° North 327 376 25,000  Level Boston Center
10:20AM 42.0522 -73.8214 12° North 334 384 25,000  Level Boston Center
10:21AM 42.1381 -73.8008 10° North 334 384 25,000  Level Boston Center
10:22AM 42.2278 -73.7775 11° North 334 384 25,000  Level Boston Center
10:23AM 42.3197 -73.7542 11° North 334 384 25,000  Level Boston Center
10:24AM 42.4119 -73.7281 12° North 334 384 25,000  Level Boston Center
10:25AM 42.5017 -73.7044 11° North 334 384 25,000  Level Boston Center
10:26AM 42.5917 -73.6781 12° North 334 384 25,000  Level Boston Center
10:27AM 42.6836 -73.6544 11° North 334 384 25,000  Level Boston Center
10:28AM 42.7756 -73.6308 11° North 334 384 25,000  Level Boston Center
10:29AM 42.8739 -73.6017 12° North 334 384 25,000  Level Boston Center
10:30AM 42.9617 -73.5778 11° North 323 372 25,000  Level Boston Center
10:31AM 43.0514 -73.5511 12° North 323 372 25,000  Level Boston Center
10:32AM 43.1247 -73.5325 10° North 328 377 25,000 -240 Level Boston Center
10:33AM 43.2269 -73.5000 13° North 328 377 24,600 -540 Descending Boston Center
10:34AM 43.3169 -73.4758 11° North 333 383 24,000 -300 Descending Boston Center
10:35AM 43.4089 -73.4517 11° North 333 383 24,000 -120 Level Boston Center
10:36AM 43.4986 -73.4275 11° North 333 383 23,800 -540 Descending Boston Center
10:37AM 43.5883 -73.4033 11° North 333 383 23,000 -1,440 Descending Boston Center
10:38AM 43.6886 -73.3761 11° North 333 383 21,000 -1,860 Descending Boston Center
10:39AM 43.7681 -73.3514 13° North 333 383 19,300 -1,740 Descending Boston Center
10:40AM 43.8536 -73.3297 10° North 321 369 17,600 -1,920 Descending Boston Center
10:41AM 43.9372 -73.3050 12° North 308 354 15,500 -2,040 Descending Boston Center
10:42AM 44.0228 -73.2803 12° North 308 354 13,600 -1,920 Descending Boston Center
10:43AM 44.1042 -73.2697 North 302 348 11,700 -1,800 Descending Boston Center
10:44AM 44.1853 -73.2797 355° North 291 335 10,000 -1,800 Descending Boston Center
10:45AM 44.2622 -73.2953 352° North 285 328 8,200 -1,500 Descending Boston Center
10:46AM 44.3350 -73.3078 353° North 273 314 7,000 -1,320 Descending Boston Center
10:47AM 44.4100 -73.3236 351° North 253 291 5,600 -1,320 Descending Boston Center
10:48AM 44.4722 -73.3478 345° North 233 268 4,400 -1,080 Descending Boston Center
10:49AM 44.5161 -73.3281 18° North 205 236 3,500 -600 Descending Boston Center
10:50AM 44.5333 -73.2672 68° East 158 182 3,200 -960 Descending Boston Center
10:51AM 44.5169 -73.2261 119° Southeast 126 145 1,600 -1,200 Descending Boston Center
10:52AM 44.4944 -73.1881 130° Southeast 116 133 800 -660 Descending Boston Center
10:53AM 44.4717 -73.1558 135° Southeast 129 148 300 -540 Descending Boston Center